createdAt,value
2022-09-22T00:00:02.394Z,0.00
2022-09-22T00:01:02.630Z,0.00
2022-09-22T00:02:02.801Z,0.00
2022-09-22T00:03:03.269Z,0.00
2022-09-22T00:04:04.646Z,0.00
2022-09-22T00:05:03.825Z,0.00
2022-09-22T00:06:04.010Z,0.00
2022-09-22T00:07:04.213Z,0.00
2022-09-22T00:08:06.416Z,0.00
2022-09-22T00:09:03.186Z,0.00
2022-09-22T00:10:05.376Z,0.00
2022-09-22T00:11:05.526Z,0.00
2022-09-22T00:12:05.704Z,0.00
2022-09-22T00:13:05.971Z,0.00
2022-09-22T00:14:04.574Z,0.00
2022-09-22T00:15:06.760Z,0.00
2022-09-22T00:16:05.157Z,0.00
2022-09-22T00:17:07.289Z,0.00
2022-09-22T00:18:08.949Z,0.00
2022-09-22T00:19:05.973Z,0.00
2022-09-22T00:20:08.161Z,0.00
2022-09-22T00:21:06.524Z,0.00
2022-09-22T00:22:06.810Z,0.00
2022-09-22T00:23:09.052Z,0.00
2022-09-22T00:24:07.561Z,0.00
2022-09-22T00:25:09.615Z,0.00
2022-09-22T00:26:07.978Z,0.00
2022-09-22T00:27:08.273Z,0.00
2022-09-22T00:28:09.592Z,0.00
2022-09-22T00:29:08.887Z,0.00
2022-09-22T00:30:10.983Z,0.00
2022-09-22T00:31:09.381Z,0.00
2022-09-22T00:32:09.672Z,0.00
2022-09-22T00:33:11.921Z,0.00
2022-09-22T00:34:10.768Z,0.00
2022-09-22T00:35:13.308Z,0.00
2022-09-22T00:36:10.812Z,0.00
2022-09-22T00:37:12.031Z,0.00
2022-09-22T00:38:14.757Z,0.00
2022-09-22T00:39:13.494Z,0.00
2022-09-22T00:40:12.031Z,0.00
2022-09-22T00:41:12.309Z,0.00
2022-09-22T00:42:12.621Z,0.00
2022-09-22T00:43:13.911Z,0.00
2022-09-22T00:44:15.132Z,0.00
2022-09-22T00:45:13.380Z,0.00
2022-09-22T00:46:15.583Z,0.00
2022-09-22T00:47:13.923Z,0.00
2022-09-22T00:48:15.179Z,0.00
2022-09-22T00:49:16.415Z,0.00
2022-09-22T00:50:15.650Z,0.00
2022-09-22T00:51:16.065Z,0.00
2022-09-22T00:52:17.294Z,0.00
2022-09-22T00:53:16.650Z,0.00
2022-09-22T00:54:17.887Z,0.00
2022-09-22T00:55:16.256Z,0.00
2022-09-22T00:56:16.551Z,0.00
2022-09-22T00:57:16.826Z,0.00
2022-09-22T00:58:19.918Z,0.00
2022-09-22T00:59:18.939Z,0.00
2022-09-22T01:00:17.664Z,0.00
2022-09-22T01:01:17.972Z,0.00
2022-09-22T01:02:20.147Z,0.00
2022-09-22T01:03:18.628Z,0.00
2022-09-22T01:04:20.729Z,0.00
2022-09-22T01:05:19.102Z,0.00
2022-09-22T01:06:20.281Z,0.00
2022-09-22T01:07:19.623Z,0.00
2022-09-22T01:08:21.775Z,0.00
2022-09-22T01:09:21.968Z,0.00
2022-09-22T01:10:22.128Z,0.00
2022-09-22T01:11:22.316Z,0.00
2022-09-22T01:12:23.001Z,0.00
2022-09-22T01:13:21.357Z,0.00
2022-09-22T01:14:21.641Z,0.00
2022-09-22T01:15:21.945Z,0.00
2022-09-22T01:16:24.226Z,0.00
2022-09-22T01:17:22.579Z,0.00
2022-09-22T01:18:22.859Z,0.00
2022-09-22T01:19:25.191Z,0.00
2022-09-22T01:20:23.418Z,0.00
2022-09-22T01:21:25.611Z,0.00
2022-09-22T01:22:23.967Z,0.00
2022-09-22T01:23:26.173Z,0.00
2022-09-22T01:24:26.382Z,0.00
2022-09-22T01:25:24.872Z,0.00
2022-09-22T01:26:27.049Z,0.00
2022-09-22T01:27:25.642Z,0.00
2022-09-22T01:28:27.572Z,0.00
2022-09-22T01:29:27.731Z,0.00
2022-09-22T01:30:27.891Z,0.00
2022-09-22T01:31:28.658Z,0.00
2022-09-22T01:32:28.768Z,0.00
2022-09-22T01:33:28.958Z,0.00
2022-09-22T01:34:29.148Z,0.00
2022-09-22T01:35:27.882Z,0.00
2022-09-22T01:36:30.079Z,0.00
2022-09-22T01:37:30.283Z,0.00
2022-09-22T01:38:28.768Z,0.00
2022-09-22T01:39:30.954Z,0.00
2022-09-22T01:40:31.176Z,0.00
2022-09-22T01:41:31.325Z,0.00
2022-09-22T01:42:31.508Z,0.00
2022-09-22T01:43:32.191Z,0.00
2022-09-22T01:44:30.548Z,0.00
2022-09-22T01:45:32.780Z,0.00
2022-09-22T01:46:32.978Z,0.00
2022-09-22T01:47:34.075Z,0.00
2022-09-22T01:48:33.314Z,0.00
2022-09-22T01:49:32.032Z,0.00
2022-09-22T01:50:32.324Z,0.00
2022-09-22T01:51:33.598Z,0.00
2022-09-22T01:52:36.255Z,0.00
2022-09-22T01:53:34.973Z,0.00
2022-09-22T01:54:33.581Z,0.00
2022-09-22T01:55:35.785Z,0.00
2022-09-22T01:56:34.142Z,0.00
2022-09-22T01:57:35.416Z,0.00
2022-09-22T01:58:36.639Z,0.00
2022-09-22T01:59:35.022Z,0.00
2022-09-22T02:00:37.192Z,0.00
2022-09-22T02:01:37.475Z,0.00
2022-09-22T02:02:38.043Z,0.00
2022-09-22T02:03:37.786Z,0.00
2022-09-22T02:04:36.532Z,0.00
2022-09-22T02:05:38.685Z,0.00
2022-09-22T02:06:38.876Z,0.00
2022-09-22T02:07:40.101Z,0.00
2022-09-22T02:08:39.346Z,0.00
2022-09-22T02:09:37.953Z,0.00
2022-09-22T02:10:40.154Z,0.00
2022-09-22T02:11:40.345Z,0.00
2022-09-22T02:12:39.807Z,0.00
2022-09-22T02:13:41.044Z,0.00
2022-09-22T02:14:39.407Z,0.00
2022-09-22T02:15:41.665Z,0.00
2022-09-22T02:16:40.026Z,0.00
2022-09-22T02:17:43.196Z,0.00
2022-09-22T02:18:42.417Z,0.00
2022-09-22T02:19:40.903Z,0.00
2022-09-22T02:20:43.101Z,0.00
2022-09-22T02:21:41.478Z,0.00
2022-09-22T02:22:42.738Z,0.00
2022-09-22T02:23:43.968Z,0.00
2022-09-22T02:24:42.327Z,0.00
2022-09-22T02:25:42.628Z,0.00
2022-09-22T02:26:42.905Z,0.00
2022-09-22T02:27:44.225Z,0.00
2022-09-22T02:28:46.348Z,0.00
2022-09-22T02:29:43.739Z,0.00
2022-09-22T02:30:54.414Z,0.00
2022-09-22T02:31:46.240Z,0.00
2022-09-22T02:32:45.559Z,0.00
2022-09-22T02:33:46.801Z,0.00
2022-09-22T02:34:45.161Z,0.00
2022-09-22T02:35:45.457Z,0.00
2022-09-22T02:36:45.836Z,0.00
2022-09-22T02:37:48.142Z,0.00
2022-09-22T02:38:48.147Z,0.00
2022-09-22T02:39:46.514Z,0.00
2022-09-22T02:40:46.887Z,0.00
2022-09-22T02:41:48.049Z,0.00
2022-09-22T02:42:48.160Z,0.00
2022-09-22T02:43:49.527Z,0.00
2022-09-22T02:44:47.767Z,0.00
2022-09-22T02:45:48.235Z,0.00
2022-09-22T02:46:50.269Z,0.00
2022-09-22T02:47:49.473Z,0.00
2022-09-22T02:48:49.889Z,0.00
2022-09-22T02:49:49.259Z,0.00
2022-09-22T02:50:50.466Z,0.00
2022-09-22T02:51:51.732Z,0.00
2022-09-22T02:52:51.095Z,0.00
2022-09-22T02:53:52.340Z,0.00
2022-09-22T02:54:52.498Z,0.00
2022-09-22T02:55:50.995Z,0.00
2022-09-22T02:56:51.281Z,0.00
2022-09-22T02:57:54.453Z,0.00
2022-09-22T02:58:58.215Z,0.00
2022-09-22T02:59:52.081Z,0.00
2022-09-22T03:00:52.360Z,0.00
2022-09-22T03:01:52.697Z,0.00
2022-09-22T03:02:54.945Z,0.00
2022-09-22T03:03:55.041Z,0.00
2022-09-22T03:04:53.581Z,0.00
2022-09-22T03:05:55.727Z,0.00
2022-09-22T03:06:54.088Z,0.00
2022-09-22T03:07:57.732Z,0.00
2022-09-22T03:08:54.627Z,0.00
2022-09-22T03:09:56.815Z,0.00
2022-09-22T03:10:56.989Z,0.00
2022-09-22T03:11:55.480Z,0.00
2022-09-22T03:13:15.468Z,0.00
2022-09-22T03:13:59.023Z,0.00
2022-09-22T03:14:56.277Z,0.00
2022-09-22T03:15:56.577Z,0.00
2022-09-22T03:16:56.856Z,0.00
2022-09-22T03:18:00.011Z,0.00
2022-09-22T03:18:59.227Z,0.00
2022-09-22T03:19:59.399Z,0.00
2022-09-22T03:20:59.590Z,0.00
2022-09-22T03:22:00.280Z,0.00
2022-09-22T03:22:59.681Z,0.00
2022-09-22T03:24:00.868Z,0.00
2022-09-22T03:25:01.063Z,0.00
2022-09-22T03:26:01.259Z,0.00
2022-09-22T03:27:01.452Z,0.00
2022-09-22T03:28:03.651Z,0.00
2022-09-22T03:29:00.426Z,0.00
2022-09-22T03:30:02.612Z,0.00
2022-09-22T03:31:01.112Z,0.00
2022-09-22T03:32:01.273Z,0.00
2022-09-22T03:33:04.443Z,0.00
2022-09-22T03:34:03.678Z,0.00
2022-09-22T03:35:02.173Z,0.00
2022-09-22T03:36:04.350Z,0.00
2022-09-22T03:37:04.530Z,0.00
2022-09-22T03:38:05.673Z,0.00
2022-09-22T03:39:05.050Z,0.00
2022-09-22T03:40:05.131Z,0.00
2022-09-22T03:41:05.793Z,0.00
2022-09-22T03:42:05.974Z,0.00
2022-09-22T03:43:07.111Z,0.00
2022-09-22T03:44:06.338Z,0.00
2022-09-22T03:45:05.070Z,0.00
2022-09-22T03:46:07.289Z,0.00
2022-09-22T03:47:07.436Z,0.00
2022-09-22T03:48:06.958Z,0.00
2022-09-22T03:49:07.290Z,0.00
2022-09-22T03:50:08.471Z,0.00
2022-09-22T03:51:08.661Z,0.00
2022-09-22T03:52:08.853Z,0.00
2022-09-22T03:53:09.359Z,0.00
2022-09-22T03:54:07.707Z,0.00
2022-09-22T03:55:08.001Z,0.00
2022-09-22T03:56:10.188Z,0.00
2022-09-22T03:57:10.369Z,0.00
2022-09-22T03:58:09.855Z,0.00
2022-09-22T03:59:09.204Z,0.00
2022-09-22T04:00:09.493Z,0.00
2022-09-22T04:01:09.838Z,0.00
2022-09-22T04:02:12.018Z,0.00
2022-09-22T04:03:11.559Z,0.00
2022-09-22T04:04:10.705Z,0.00
2022-09-22T04:05:12.907Z,0.00
2022-09-22T04:06:11.275Z,0.00
2022-09-22T04:07:11.550Z,0.00
2022-09-22T04:08:14.707Z,0.00
2022-09-22T04:09:12.188Z,0.00
2022-09-22T04:10:14.273Z,0.00
2022-09-22T04:11:14.462Z,0.00
2022-09-22T04:12:14.614Z,0.00
2022-09-22T04:13:14.204Z,0.00
2022-09-22T04:14:15.430Z,0.00
2022-09-22T04:15:15.610Z,0.00
2022-09-22T04:16:14.175Z,0.00
2022-09-22T04:17:17.745Z,0.00
2022-09-22T04:18:15.651Z,0.00
2022-09-22T04:19:16.908Z,0.00
2022-09-22T04:20:17.078Z,0.00
2022-09-22T04:21:15.450Z,0.00
2022-09-22T04:22:19.095Z,0.00
2022-09-22T04:23:18.018Z,0.00
2022-09-22T04:24:18.075Z,0.00
2022-09-22T04:25:18.280Z,0.00
2022-09-22T04:26:16.896Z,0.00
2022-09-22T04:27:21.141Z,0.00
2022-09-22T04:28:18.271Z,0.00
2022-09-22T04:29:17.783Z,0.00
2022-09-22T04:30:19.996Z,0.00
2022-09-22T04:31:18.455Z,0.00
2022-09-22T04:32:21.507Z,4.00
2022-09-22T04:33:20.724Z,4.00
2022-09-22T04:34:19.331Z,0.00
2022-09-22T04:35:22.486Z,0.00
2022-09-22T04:36:20.808Z,4.00
2022-09-22T04:37:22.047Z,4.00
2022-09-22T04:38:22.218Z,4.00
2022-09-22T04:39:23.813Z,4.00
2022-09-22T04:40:21.069Z,8.00
2022-09-22T04:41:22.149Z,8.00
2022-09-22T04:42:23.529Z,12.00
2022-09-22T04:43:23.754Z,12.00
2022-09-22T04:44:23.081Z,16.00
2022-09-22T04:45:23.296Z,16.00
2022-09-22T04:46:23.775Z,20.00
2022-09-22T04:47:24.966Z,24.00
2022-09-22T04:48:25.153Z,28.00
2022-09-22T04:49:23.655Z,32.00
2022-09-22T04:50:23.953Z,40.00
2022-09-22T04:51:24.256Z,48.00
2022-09-22T04:52:26.438Z,52.00
2022-09-22T04:53:24.823Z,68.00
2022-09-22T04:54:25.131Z,72.00
2022-09-22T04:55:25.436Z,84.00
2022-09-22T04:56:25.739Z,100.00
2022-09-22T04:57:27.011Z,116.00
2022-09-22T04:58:28.252Z,128.00
2022-09-22T04:59:26.638Z,144.00
2022-09-22T05:00:26.953Z,168.00
2022-09-22T05:01:27.333Z,188.00
2022-09-22T05:02:27.497Z,208.00
2022-09-22T05:03:29.842Z,236.00
2022-09-22T05:04:28.047Z,260.00
2022-09-22T05:05:28.369Z,288.00
2022-09-22T05:06:28.673Z,316.00
2022-09-22T05:07:30.852Z,352.00
2022-09-22T05:08:31.028Z,388.00
2022-09-22T05:09:29.545Z,424.00
2022-09-22T05:10:29.867Z,464.00
2022-09-22T05:11:32.066Z,504.00
2022-09-22T05:12:33.240Z,548.00
2022-09-22T05:13:32.450Z,592.00
2022-09-22T05:14:31.169Z,636.00
2022-09-22T05:15:33.292Z,688.00
2022-09-22T05:16:33.535Z,740.00
2022-09-22T05:17:34.053Z,792.00
2022-09-22T05:18:33.896Z,848.00
2022-09-22T05:19:34.599Z,904.00
2022-09-22T05:20:34.810Z,964.00
2022-09-22T05:21:33.321Z,1020.00
2022-09-22T05:22:39.832Z,1080.00
2022-09-22T05:23:35.731Z,1140.00
2022-09-22T05:24:35.925Z,1204.00
2022-09-22T05:25:36.162Z,1268.00
2022-09-22T05:26:37.310Z,1336.00
2022-09-22T05:27:38.581Z,1408.00
2022-09-22T05:28:35.773Z,1488.00
2022-09-22T05:29:37.596Z,1568.00
2022-09-22T05:30:37.754Z,1644.00
2022-09-22T05:31:38.006Z,1732.00
2022-09-22T05:32:39.072Z,1812.00
2022-09-22T05:33:38.317Z,1892.00
2022-09-22T05:34:38.477Z,1964.00
2022-09-22T05:35:39.183Z,2040.00
2022-09-22T05:36:39.350Z,2116.00
2022-09-22T05:37:40.529Z,2184.00
2022-09-22T05:38:39.751Z,2260.00
2022-09-22T05:39:40.450Z,2328.00
2022-09-22T05:40:38.938Z,2412.00
2022-09-22T05:41:39.156Z,2508.00
2022-09-22T05:42:42.312Z,2612.00
2022-09-22T05:43:41.526Z,2732.00
2022-09-22T05:44:41.686Z,2844.00
2022-09-22T05:45:41.924Z,2948.00
2022-09-22T05:46:42.566Z,3040.00
2022-09-22T05:47:44.226Z,3144.00
2022-09-22T05:48:42.950Z,3248.00
2022-09-22T05:49:43.143Z,3340.00
2022-09-22T05:50:43.328Z,3436.00
2022-09-22T05:51:44.022Z,3532.00
2022-09-22T05:52:43.902Z,3656.00
2022-09-22T05:53:44.638Z,3804.00
2022-09-22T05:54:44.830Z,3940.00
2022-09-22T05:55:45.049Z,4100.00
2022-09-22T05:56:45.200Z,4312.00
2022-09-22T05:57:46.372Z,4512.00
2022-09-22T05:58:46.111Z,4720.00
2022-09-22T05:59:46.301Z,5044.00
2022-09-22T06:00:46.529Z,5428.00
2022-09-22T06:01:46.690Z,5648.00
2022-09-22T06:02:47.405Z,5856.00
2022-09-22T06:03:47.601Z,6144.00
2022-09-22T06:04:49.718Z,6372.00
2022-09-22T06:05:46.137Z,6560.00
2022-09-22T06:06:48.319Z,6860.00
2022-09-22T06:07:47.704Z,7016.00
2022-09-22T06:08:49.359Z,7176.00
2022-09-22T06:09:49.112Z,7416.00
2022-09-22T06:10:47.505Z,7700.00
2022-09-22T06:11:48.846Z,7620.00
2022-09-22T06:12:48.169Z,7648.00
2022-09-22T06:13:50.316Z,7760.00
2022-09-22T06:14:48.722Z,7840.00
2022-09-22T06:15:50.909Z,8180.00
2022-09-22T06:16:49.349Z,8152.00
2022-09-22T06:17:50.623Z,7444.00
2022-09-22T06:18:49.878Z,7424.00
2022-09-22T06:19:52.071Z,7980.00
2022-09-22T06:20:52.253Z,8204.00
2022-09-22T06:21:50.784Z,8076.00
2022-09-22T06:22:52.130Z,8180.00
2022-09-22T06:23:51.404Z,8220.00
2022-09-22T06:24:51.741Z,8128.00
2022-09-22T06:25:53.922Z,8068.00
2022-09-22T06:26:52.481Z,8224.00
2022-09-22T06:27:55.958Z,8268.00
2022-09-22T06:28:52.889Z,8228.00
2022-09-22T06:29:54.019Z,8284.00
2022-09-22T06:30:55.404Z,8392.00
2022-09-22T06:31:53.849Z,8448.00
2022-09-22T06:32:56.476Z,8448.00
2022-09-22T06:33:54.392Z,8224.00
2022-09-22T06:34:54.722Z,8048.00
2022-09-22T06:35:56.911Z,8288.00
2022-09-22T06:36:55.314Z,8568.00
2022-09-22T06:37:56.619Z,8776.00
2022-09-22T06:38:55.901Z,8960.00
2022-09-22T06:39:56.254Z,8900.00
2022-09-22T06:40:56.496Z,9052.00
2022-09-22T06:41:58.643Z,9036.00
2022-09-22T06:42:58.020Z,8788.00
2022-09-22T06:43:57.287Z,8844.00
2022-09-22T06:44:57.672Z,9284.00
2022-09-22T06:45:57.969Z,9400.00
2022-09-22T06:46:58.151Z,9136.00
2022-09-22T06:48:01.312Z,9164.00
2022-09-22T06:48:58.725Z,9648.00
2022-09-22T06:49:59.067Z,9844.00
2022-09-22T06:50:59.399Z,10040.00
2022-09-22T06:52:01.591Z,9944.00
2022-09-22T06:53:02.722Z,9896.00
2022-09-22T06:54:00.275Z,9988.00
2022-09-22T06:55:02.455Z,10104.00
2022-09-22T06:56:00.760Z,10084.00
2022-09-22T06:57:00.985Z,9920.00
2022-09-22T06:58:04.174Z,9700.00
2022-09-22T06:59:10.493Z,10124.00
2022-09-22T07:00:04.765Z,10360.00
2022-09-22T07:01:08.880Z,10500.00
2022-09-22T07:02:05.198Z,10724.00
2022-09-22T07:03:06.243Z,10844.00
2022-09-22T07:04:04.980Z,11012.00
2022-09-22T07:05:05.140Z,11060.00
2022-09-22T07:06:05.302Z,10740.00
2022-09-22T07:07:05.508Z,10816.00
2022-09-22T07:08:07.716Z,11372.00
2022-09-22T07:09:06.492Z,11548.00
2022-09-22T07:10:04.842Z,11568.00
2022-09-22T07:11:06.999Z,11664.00
2022-09-22T07:12:05.296Z,12204.00
2022-09-22T07:13:08.452Z,12484.00
2022-09-22T07:14:05.762Z,12360.00
2022-09-22T07:15:07.947Z,12240.00
2022-09-22T07:16:06.271Z,12336.00
2022-09-22T07:17:06.471Z,12896.00
2022-09-22T07:18:07.693Z,13476.00
2022-09-22T07:19:08.919Z,13808.00
2022-09-22T07:20:09.108Z,14432.00
2022-09-22T07:21:09.272Z,14532.00
2022-09-22T07:22:09.464Z,14892.00
2022-09-22T07:23:09.186Z,16064.00
2022-09-22T07:24:10.361Z,17888.00
2022-09-22T07:25:10.544Z,19104.00
2022-09-22T07:26:10.710Z,18432.00
2022-09-22T07:27:10.865Z,16608.00
2022-09-22T07:28:13.036Z,14912.00
2022-09-22T07:29:11.880Z,14152.00
2022-09-22T07:30:11.969Z,13884.00
2022-09-22T07:31:12.176Z,13744.00
2022-09-22T07:32:12.348Z,13524.00
2022-09-22T07:33:14.006Z,13172.00
2022-09-22T07:34:13.204Z,13020.00
2022-09-22T07:35:11.764Z,12908.00
2022-09-22T07:36:11.990Z,12824.00
2022-09-22T07:37:14.175Z,12740.00
2022-09-22T07:38:13.344Z,12744.00
2022-09-22T07:39:12.766Z,12836.00
2022-09-22T07:40:13.051Z,12960.00
2022-09-22T07:41:13.278Z,13168.00
2022-09-22T07:42:15.469Z,13388.00
2022-09-22T07:43:15.662Z,13848.00
2022-09-22T07:44:14.083Z,15916.00
2022-09-22T07:45:16.269Z,18912.00
2022-09-22T07:46:14.585Z,19904.00
2022-09-22T07:47:16.756Z,20384.00
2022-09-22T07:48:17.899Z,20640.00
2022-09-22T07:49:15.458Z,21632.00
2022-09-22T07:50:17.638Z,23296.00
2022-09-22T07:51:17.830Z,23872.00
2022-09-22T07:52:18.018Z,24832.00
2022-09-22T07:53:18.209Z,25888.00
2022-09-22T07:54:18.397Z,24928.00
2022-09-22T07:55:19.094Z,25248.00
2022-09-22T07:56:19.281Z,26848.00
2022-09-22T07:57:19.444Z,27008.00
2022-09-22T07:58:19.601Z,27584.00
2022-09-22T07:59:20.300Z,28096.00
2022-09-22T08:00:20.491Z,28320.00
2022-09-22T08:01:20.685Z,28256.00
2022-09-22T08:02:20.929Z,28096.00
2022-09-22T08:03:19.844Z,28608.00
2022-09-22T08:04:21.776Z,29088.00
2022-09-22T08:05:21.970Z,29568.00
2022-09-22T08:06:23.797Z,30112.00
2022-09-22T08:07:20.779Z,29824.00
2022-09-22T08:08:21.009Z,27872.00
2022-09-22T08:09:23.193Z,27296.00
2022-09-22T08:10:21.493Z,28064.00
2022-09-22T08:11:23.680Z,28320.00
2022-09-22T08:12:21.972Z,28608.00
2022-09-22T08:13:22.204Z,28864.00
2022-09-22T08:14:22.437Z,29696.00
2022-09-22T08:15:27.125Z,31392.00
2022-09-22T08:16:24.846Z,32768.00
2022-09-22T08:17:26.464Z,33664.00
2022-09-22T08:18:25.205Z,33600.00
2022-09-22T08:19:23.923Z,32448.00
2022-09-22T08:20:27.497Z,33344.00
2022-09-22T08:21:24.441Z,34720.00
2022-09-22T08:22:26.623Z,35616.00
2022-09-22T08:23:24.914Z,36352.00
2022-09-22T08:24:27.131Z,36768.00
2022-09-22T08:25:25.777Z,35904.00
2022-09-22T08:26:27.627Z,35392.00
2022-09-22T08:27:25.924Z,35776.00
2022-09-22T08:28:28.118Z,35552.00
2022-09-22T08:29:28.305Z,36320.00
2022-09-22T08:30:28.492Z,37184.00
2022-09-22T08:31:27.104Z,37888.00
2022-09-22T08:32:27.318Z,38528.00
2022-09-22T08:33:29.506Z,39264.00
2022-09-22T08:34:29.694Z,39040.00
2022-09-22T08:35:29.872Z,38528.00
2022-09-22T08:36:28.436Z,38336.00
2022-09-22T08:37:28.669Z,38528.00
2022-09-22T08:38:30.830Z,38944.00
2022-09-22T08:39:31.480Z,38656.00
2022-09-22T08:40:30.432Z,39520.00
2022-09-22T08:41:30.601Z,39328.00
2022-09-22T08:42:30.952Z,38976.00
2022-09-22T08:43:32.192Z,37504.00
2022-09-22T08:44:32.378Z,38752.00
2022-09-22T08:45:32.569Z,40768.00
2022-09-22T08:46:31.248Z,42528.00
2022-09-22T08:47:31.453Z,42496.00
2022-09-22T08:48:31.688Z,42464.00
2022-09-22T08:49:33.892Z,43264.00
2022-09-22T08:50:34.072Z,44896.00
2022-09-22T08:51:32.524Z,44928.00
2022-09-22T08:52:36.164Z,43008.00
2022-09-22T08:53:32.977Z,42272.00
2022-09-22T08:54:33.207Z,42688.00
2022-09-22T08:55:35.392Z,44448.00
2022-09-22T08:56:33.690Z,44032.00
2022-09-22T08:57:34.949Z,43936.00
2022-09-22T08:58:36.120Z,43872.00
2022-09-22T08:59:34.555Z,45088.00
2022-09-22T09:00:38.041Z,44992.00
2022-09-22T09:01:36.053Z,46848.00
2022-09-22T09:02:36.353Z,47232.00
2022-09-22T09:03:37.525Z,48320.00
2022-09-22T09:04:35.943Z,48384.00
2022-09-22T09:05:38.166Z,48672.00
2022-09-22T09:06:36.455Z,50304.00
2022-09-22T09:07:37.657Z,50432.00
2022-09-22T09:08:38.888Z,48864.00
2022-09-22T09:09:37.194Z,47616.00
2022-09-22T09:10:37.426Z,48544.00
2022-09-22T09:11:39.610Z,49568.00
2022-09-22T09:12:38.887Z,48000.00
2022-09-22T09:13:40.114Z,46304.00
2022-09-22T09:14:38.409Z,46688.00
2022-09-22T09:15:38.683Z,47360.00
2022-09-22T09:16:38.905Z,48960.00
2022-09-22T09:17:39.216Z,50272.00
2022-09-22T09:18:41.394Z,51392.00
2022-09-22T09:19:39.694Z,49216.00
2022-09-22T09:20:39.930Z,50880.00
2022-09-22T09:21:40.156Z,50624.00
2022-09-22T09:22:43.685Z,51584.00
2022-09-22T09:25:42.186Z,47520.00
2022-09-22T09:26:41.467Z,46944.00
2022-09-22T09:27:42.682Z,46976.00
2022-09-22T09:28:43.907Z,49984.00
2022-09-22T09:29:42.205Z,51456.00
2022-09-22T09:30:42.430Z,51200.00
2022-09-22T09:31:42.673Z,51712.00
2022-09-22T09:32:44.903Z,49600.00
2022-09-22T09:33:45.030Z,50464.00
2022-09-22T09:34:43.510Z,50464.00
2022-09-22T09:35:45.646Z,50208.00
2022-09-22T09:36:47.294Z,49344.00
2022-09-22T09:37:46.984Z,50400.00
2022-09-22T09:38:46.210Z,52288.00
2022-09-22T09:39:46.876Z,54080.00
2022-09-22T09:40:45.232Z,53984.00
2022-09-22T09:41:45.437Z,55136.00
2022-09-22T09:42:49.098Z,54784.00
2022-09-22T09:43:47.967Z,54656.00
2022-09-22T09:44:46.140Z,53984.00
2022-09-22T09:45:46.376Z,54176.00
2022-09-22T09:46:46.637Z,53120.00
2022-09-22T09:47:49.776Z,50880.00
2022-09-22T09:48:47.080Z,51584.00
2022-09-22T09:49:52.852Z,54464.00
2022-09-22T09:50:48.657Z,57504.00
2022-09-22T09:51:47.953Z,59808.00
2022-09-22T09:52:50.239Z,57824.00
2022-09-22T09:53:49.540Z,56672.00
2022-09-22T09:54:48.701Z,56992.00
2022-09-22T09:55:48.993Z,57056.00
2022-09-22T09:56:49.209Z,58048.00
2022-09-22T09:57:52.880Z,61216.00
2022-09-22T09:58:51.569Z,60832.00
2022-09-22T09:59:51.729Z,58848.00
2022-09-22T10:00:51.888Z,58176.00
2022-09-22T10:01:52.655Z,57536.00
2022-09-22T10:02:53.161Z,57088.00
2022-09-22T10:03:52.923Z,59904.00
2022-09-22T10:04:53.104Z,59744.00
2022-09-22T10:05:53.281Z,60416.00
2022-09-22T10:06:53.952Z,60064.00
2022-09-22T10:07:54.340Z,58432.00
2022-09-22T10:08:54.372Z,58112.00
2022-09-22T10:09:54.566Z,58656.00
2022-09-22T10:10:55.232Z,59200.00
2022-09-22T10:11:55.417Z,60448.00
2022-09-22T10:12:54.654Z,59392.00
2022-09-22T10:13:55.825Z,59008.00
2022-09-22T10:14:56.021Z,59584.00
2022-09-22T10:15:56.753Z,60448.00
2022-09-22T10:16:56.900Z,60960.00
2022-09-22T10:17:55.536Z,64128.00
2022-09-22T10:18:57.644Z,62528.00
2022-09-22T10:19:57.840Z,62848.00
2022-09-22T10:20:58.023Z,63264.00
2022-09-22T10:21:58.678Z,61312.00
2022-09-22T10:22:57.762Z,61216.00
2022-09-22T10:23:59.216Z,61152.00
2022-09-22T10:24:57.630Z,62016.00
2022-09-22T10:25:57.989Z,62592.00
2022-09-22T10:26:59.493Z,61536.00
2022-09-22T10:27:59.332Z,62944.00
2022-09-22T10:28:59.863Z,63584.00
2022-09-22T10:30:00.539Z,60896.00
2022-09-22T10:31:01.303Z,65024.00
2022-09-22T10:31:59.568Z,39104.00
2022-09-22T10:33:00.763Z,70144.00
2022-09-22T10:34:02.120Z,72064.00
2022-09-22T10:35:00.300Z,72352.00
2022-09-22T10:36:07.754Z,70816.00
2022-09-22T10:37:01.821Z,71776.00
2022-09-22T10:38:01.132Z,71168.00
2022-09-22T10:39:03.329Z,23584.00
2022-09-22T10:40:01.638Z,45088.00
2022-09-22T10:41:01.831Z,41984.00
2022-09-22T10:42:02.066Z,68544.00
2022-09-22T10:43:03.266Z,65600.00
2022-09-22T10:44:27.329Z,65984.00
2022-09-22T10:45:03.813Z,68416.00
2022-09-22T10:46:03.211Z,69504.00
2022-09-22T10:47:03.411Z,74976.00
2022-09-22T10:48:06.614Z,76480.00
2022-09-22T10:49:03.876Z,77536.00
2022-09-22T10:50:06.175Z,76736.00
2022-09-22T10:51:04.347Z,79008.00
2022-09-22T10:52:04.575Z,77856.00
2022-09-22T10:53:07.718Z,75616.00
2022-09-22T10:54:05.162Z,76544.00
2022-09-22T10:55:07.352Z,75136.00
2022-09-22T10:56:05.650Z,74528.00
2022-09-22T10:57:06.148Z,75744.00
2022-09-22T10:58:07.245Z,77472.00
2022-09-22T10:59:06.526Z,80192.00
2022-09-22T11:00:08.786Z,81728.00
2022-09-22T11:01:07.121Z,81728.00
2022-09-22T11:02:07.333Z,24576.00
2022-09-22T11:03:11.008Z,25344.00
2022-09-22T11:04:07.927Z,22240.00
2022-09-22T11:05:08.055Z,21312.00
2022-09-22T11:06:10.246Z,37632.00
2022-09-22T11:07:09.411Z,74464.00
2022-09-22T11:08:10.852Z,74176.00
2022-09-22T11:09:09.146Z,23168.00
2022-09-22T11:10:10.333Z,40224.00
2022-09-22T11:11:11.551Z,56480.00
2022-09-22T11:12:10.722Z,27424.00
2022-09-22T11:13:13.042Z,25600.00
2022-09-22T11:14:10.476Z,37824.00
2022-09-22T11:15:10.701Z,75808.00
2022-09-22T11:16:12.899Z,77120.00
2022-09-22T11:17:11.201Z,77312.00
2022-09-22T11:18:14.504Z,23264.00
2022-09-22T11:19:11.691Z,21728.00
2022-09-22T11:20:13.872Z,19552.00
2022-09-22T11:21:14.032Z,18272.00
2022-09-22T11:22:12.455Z,20256.00
2022-09-22T11:23:15.596Z,27456.00
2022-09-22T11:24:12.917Z,22208.00
2022-09-22T11:25:15.115Z,69760.00
2022-09-22T11:26:15.294Z,75840.00
2022-09-22T11:27:13.716Z,77472.00
2022-09-22T11:28:14.167Z,77600.00
2022-09-22T11:29:14.358Z,75584.00
2022-09-22T11:30:14.709Z,74144.00
2022-09-22T11:31:16.817Z,72768.00
2022-09-22T11:32:15.187Z,70528.00
2022-09-22T11:33:16.387Z,67456.00
2022-09-22T11:34:15.665Z,67168.00
2022-09-22T11:35:15.892Z,67520.00
2022-09-22T11:36:18.080Z,63808.00
2022-09-22T11:37:18.266Z,52768.00
2022-09-22T11:38:19.940Z,71936.00
2022-09-22T11:39:18.638Z,73536.00
2022-09-22T11:40:18.827Z,73760.00
2022-09-22T11:41:19.482Z,22048.00
2022-09-22T11:42:19.670Z,21920.00
2022-09-22T11:43:19.859Z,71264.00
2022-09-22T11:44:20.028Z,74496.00
2022-09-22T11:45:20.692Z,76992.00
2022-09-22T11:46:20.891Z,75488.00
2022-09-22T11:47:21.019Z,74304.00
2022-09-22T11:48:21.169Z,72224.00
2022-09-22T11:49:21.871Z,20800.00
2022-09-22T11:50:22.063Z,21984.00
2022-09-22T11:51:22.199Z,22112.00
2022-09-22T11:52:22.350Z,22912.00
2022-09-22T11:53:23.045Z,30784.00
2022-09-22T11:54:23.224Z,32352.00
2022-09-22T11:55:23.429Z,67264.00
2022-09-22T11:56:23.594Z,20992.00
2022-09-22T11:57:25.026Z,38272.00
2022-09-22T11:58:24.592Z,49856.00
2022-09-22T11:59:22.997Z,69088.00
2022-09-22T12:00:23.222Z,35072.00
2022-09-22T12:01:25.504Z,68736.00
2022-09-22T12:02:24.011Z,23680.00
2022-09-22T12:03:24.728Z,21344.00
2022-09-22T12:04:24.486Z,18648.00
2022-09-22T12:05:24.739Z,17132.00
2022-09-22T12:06:27.891Z,16968.00
2022-09-22T12:07:27.108Z,17416.00
2022-09-22T12:08:27.293Z,18076.00
2022-09-22T12:09:29.627Z,63840.00
2022-09-22T12:10:28.162Z,69312.00
2022-09-22T12:11:28.353Z,66976.00
2022-09-22T12:12:28.543Z,72224.00
2022-09-22T12:13:28.741Z,73632.00
2022-09-22T12:14:29.422Z,74272.00
2022-09-22T12:15:29.651Z,74816.00
2022-09-22T12:16:29.828Z,73568.00
2022-09-22T12:17:30.015Z,60192.00
2022-09-22T12:18:28.555Z,70176.00
2022-09-22T12:19:30.737Z,70112.00
2022-09-22T12:20:30.931Z,67232.00
2022-09-22T12:21:31.113Z,68768.00
2022-09-22T12:22:33.265Z,67936.00
2022-09-22T12:23:32.025Z,23264.00
2022-09-22T12:24:32.212Z,20960.00
2022-09-22T12:25:45.142Z,20224.00
2022-09-22T12:26:33.562Z,19168.00
2022-09-22T12:27:33.690Z,17592.00